createdAt,value
2022-12-09T00:01:44.434Z,15.43
2022-12-09T00:04:48.376Z,14.57
2022-12-09T00:07:53.546Z,14.10
2022-12-09T00:10:57.207Z,14.73
2022-12-09T00:14:01.701Z,15.43
2022-12-09T00:17:05.558Z,14.53
2022-12-09T00:20:11.375Z,13.77
2022-12-09T00:23:17.177Z,13.33
2022-12-09T00:26:23.584Z,14.10
2022-12-09T00:29:27.128Z,13.37
2022-12-09T00:32:30.871Z,14.23
2022-12-09T00:35:34.822Z,14.27
2022-12-09T00:38:40.041Z,13.00
2022-12-09T00:41:43.634Z,13.83
2022-12-09T00:44:47.222Z,13.00
2022-12-09T00:47:51.102Z,14.07
2022-12-09T00:50:54.969Z,13.87
2022-12-09T00:54:00.103Z,13.37
2022-12-09T00:57:04.503Z,13.70
2022-12-09T01:00:10.889Z,13.87
2022-12-09T01:03:16.199Z,16.03
2022-12-09T01:06:23.854Z,15.13
2022-12-09T01:09:28.971Z,13.70
2022-12-09T01:12:34.957Z,12.87
2022-12-09T01:15:39.559Z,13.47
2022-12-09T01:18:43.409Z,12.57
2022-12-09T01:21:47.221Z,12.83
2022-12-09T01:24:52.477Z,12.30
2022-12-09T01:27:56.159Z,13.33
2022-12-09T01:31:08.147Z,11.43
2022-12-09T01:34:11.885Z,12.13
2022-12-09T01:37:16.239Z,11.63
2022-12-09T01:40:21.368Z,12.53
2022-12-09T01:43:25.139Z,11.93
2022-12-09T01:46:28.948Z,13.00
2022-12-09T01:49:43.324Z,12.87
2022-12-09T01:52:49.889Z,12.83
2022-12-09T01:55:58.679Z,12.40
2022-12-09T01:59:12.862Z,13.03
2022-12-09T02:02:20.429Z,12.33
2022-12-09T02:05:25.999Z,12.70
2022-12-09T02:08:29.841Z,11.87
2022-12-09T02:11:52.188Z,12.87
2022-12-09T02:15:04.687Z,12.87
2022-12-09T02:18:19.830Z,12.90
2022-12-09T02:21:32.478Z,12.73
2022-12-09T02:24:47.420Z,12.40
2022-12-09T02:28:25.902Z,13.00
2022-12-09T02:31:52.579Z,12.90
2022-12-09T02:35:04.954Z,12.27
2022-12-09T02:38:15.075Z,12.17
2022-12-09T02:41:25.011Z,12.03
2022-12-09T02:44:29.042Z,12.03
2022-12-09T02:47:37.637Z,12.40
2022-12-09T02:50:48.689Z,11.87
2022-12-09T02:54:00.358Z,13.43
2022-12-09T02:57:14.658Z,12.97
2022-12-09T03:00:19.211Z,12.87
2022-12-09T03:03:23.102Z,12.50
2022-12-09T03:06:37.340Z,11.93
2022-12-09T03:09:49.032Z,12.80
2022-12-09T03:13:03.845Z,12.43
2022-12-09T03:16:15.741Z,12.97
2022-12-09T03:19:27.251Z,13.87
2022-12-09T03:22:37.028Z,13.23
2022-12-09T03:25:47.249Z,13.60
2022-12-09T03:28:55.916Z,14.13
2022-12-09T03:32:01.123Z,14.53
2022-12-09T03:35:10.668Z,15.23
2022-12-09T03:38:22.282Z,14.97
2022-12-09T03:41:31.719Z,15.97
2022-12-09T03:44:43.233Z,15.90
2022-12-09T03:47:47.048Z,15.87
2022-12-09T03:50:59.533Z,16.33
2022-12-09T03:54:15.236Z,16.77
2022-12-09T03:57:21.953Z,15.87
2022-12-09T04:00:25.998Z,16.13
2022-12-09T04:03:30.201Z,16.43
2022-12-09T04:06:34.481Z,16.73
2022-12-09T04:09:39.673Z,16.57
2022-12-09T04:12:43.392Z,17.03
2022-12-09T04:15:46.995Z,17.13
2022-12-09T04:18:51.198Z,17.80
2022-12-09T04:21:55.065Z,15.87
2022-12-09T04:25:00.186Z,17.43
2022-12-09T04:28:04.190Z,16.97
2022-12-09T04:31:11.804Z,16.57
2022-12-09T04:34:15.574Z,16.47
2022-12-09T04:37:19.215Z,16.60
2022-12-09T04:40:24.866Z,17.70
2022-12-09T04:43:29.038Z,16.53
2022-12-09T04:46:33.236Z,16.60
2022-12-09T04:49:37.000Z,16.60
2022-12-09T04:52:40.966Z,17.10
2022-12-09T04:55:46.173Z,16.00
2022-12-09T04:58:51.857Z,17.30
2022-12-09T05:01:55.548Z,16.80
2022-12-09T05:05:01.640Z,15.70
2022-12-09T05:08:06.049Z,17.57
2022-12-09T05:11:12.259Z,16.67
2022-12-09T05:14:16.431Z,15.63
2022-12-09T05:17:20.371Z,17.33
2022-12-09T05:20:28.079Z,17.30
2022-12-09T05:23:31.922Z,16.83
2022-12-09T05:26:37.901Z,17.70
2022-12-09T05:29:42.488Z,16.47
2022-12-09T05:32:46.298Z,16.90
2022-12-09T05:35:52.983Z,17.27
2022-12-09T05:38:57.833Z,16.10
2022-12-09T05:42:03.144Z,16.90
2022-12-09T05:45:08.269Z,17.73
2022-12-09T05:48:12.573Z,19.17
2022-12-09T05:51:23.270Z,17.03
2022-12-09T05:54:28.062Z,17.83
2022-12-09T05:57:35.308Z,18.77
2022-12-09T06:00:39.753Z,17.90
2022-12-09T06:03:43.869Z,17.40
2022-12-09T06:06:48.087Z,17.47
2022-12-09T06:09:52.032Z,18.00
2022-12-09T06:12:58.372Z,19.80
2022-12-09T06:16:05.429Z,19.63
2022-12-09T06:19:12.993Z,19.37
2022-12-09T06:22:16.847Z,18.33
2022-12-09T06:25:21.019Z,20.07
2022-12-09T06:28:26.296Z,22.03
2022-12-09T06:31:31.013Z,18.20
2022-12-09T06:34:35.667Z,17.03
2022-12-09T06:37:39.728Z,15.97
2022-12-09T06:40:44.239Z,17.23
2022-12-09T06:43:49.668Z,15.63
2022-12-09T06:46:53.845Z,15.43
2022-12-09T06:50:07.214Z,14.97
2022-12-09T06:53:11.893Z,15.63
2022-12-09T06:56:16.975Z,15.43
2022-12-09T06:59:22.297Z,16.53
2022-12-09T07:02:28.061Z,16.07
2022-12-09T07:05:35.348Z,15.87
2022-12-09T07:08:39.830Z,18.37
2022-12-09T07:11:48.288Z,15.87
2022-12-09T07:14:54.155Z,17.07
2022-12-09T07:17:57.883Z,17.73
2022-12-09T07:21:09.986Z,20.47
2022-12-09T07:24:14.606Z,19.97
2022-12-09T07:27:19.806Z,19.70
2022-12-09T07:30:25.119Z,18.53
2022-12-09T07:33:29.595Z,19.07
2022-12-09T07:36:36.616Z,18.97
2022-12-09T07:39:40.636Z,20.63
2022-12-09T07:42:44.672Z,26.73
2022-12-09T07:45:50.745Z,20.43
2022-12-09T07:48:56.191Z,18.57
2022-12-09T07:52:00.126Z,20.77
2022-12-09T07:55:04.890Z,19.60
2022-12-09T07:58:09.487Z,18.47
2022-12-09T08:01:17.354Z,17.10
2022-12-09T08:04:21.724Z,16.20
2022-12-09T08:07:25.727Z,16.80
2022-12-09T08:10:30.839Z,33.10
2022-12-09T08:13:34.728Z,23.10
2022-12-09T08:16:40.791Z,22.13
2022-12-09T08:19:45.116Z,23.07
2022-12-09T08:22:49.315Z,19.87
2022-12-09T08:25:55.210Z,20.20
2022-12-09T08:28:59.326Z,22.63
2022-12-09T08:32:06.138Z,22.60
2022-12-09T08:35:15.238Z,24.27
2022-12-09T08:38:19.196Z,23.13
2022-12-09T08:41:36.316Z,23.40
2022-12-09T08:44:41.639Z,23.90
2022-12-09T08:47:47.793Z,25.60
2022-12-09T08:50:51.749Z,23.57
2022-12-09T08:53:55.894Z,23.70
2022-12-09T08:57:00.436Z,25.00
2022-12-09T09:00:06.367Z,23.73
2022-12-09T09:03:12.170Z,26.00
2022-12-09T09:06:17.291Z,22.03
2022-12-09T09:09:24.341Z,22.63
2022-12-09T09:12:28.661Z,20.70
2022-12-09T09:15:33.555Z,20.70
2022-12-09T09:18:39.365Z,18.93
2022-12-09T09:21:43.797Z,23.40
2022-12-09T09:24:48.401Z,20.27
2022-12-09T09:27:52.351Z,20.00
2022-12-09T09:31:01.798Z,18.87
2022-12-09T09:34:07.498Z,20.87
2022-12-09T09:37:11.444Z,21.00
2022-12-09T09:40:16.303Z,20.63
2022-12-09T09:43:27.859Z,22.47
2022-12-09T09:46:44.220Z,19.00
2022-12-09T09:49:59.620Z,20.20
2022-12-09T09:53:16.874Z,20.10
2022-12-09T09:56:29.442Z,20.10
2022-12-09T09:59:46.165Z,21.07
2022-12-09T10:03:01.260Z,20.47
2022-12-09T10:06:23.184Z,21.77
2022-12-09T10:09:42.686Z,22.77
2022-12-09T10:13:08.311Z,22.80
2022-12-09T10:16:19.490Z,24.20
2022-12-09T10:19:34.535Z,23.80
2022-12-09T10:22:46.760Z,23.83
2022-12-09T10:25:55.984Z,23.23
2022-12-09T10:29:15.462Z,24.47
2022-12-09T10:32:23.257Z,26.87
2022-12-09T10:35:30.827Z,28.17
2022-12-09T10:38:43.243Z,29.07
2022-12-09T10:42:11.285Z,29.67
2022-12-09T10:46:15.205Z,31.47
2022-12-09T10:49:04.047Z,28.27
2022-12-09T10:52:08.528Z,29.63
2022-12-09T10:55:31.519Z,27.40
2022-12-09T10:58:35.310Z,30.33
2022-12-09T11:01:51.690Z,25.77
2022-12-09T11:04:56.144Z,28.00
2022-12-09T11:08:00.989Z,29.10
2022-12-09T11:11:06.911Z,27.37
2022-12-09T11:14:28.637Z,27.80
2022-12-09T11:17:36.211Z,25.93
2022-12-09T11:20:40.982Z,26.67
2022-12-09T11:24:02.536Z,26.53
2022-12-09T11:27:28.131Z,27.90
2022-12-09T11:30:36.477Z,25.07
2022-12-09T11:33:52.126Z,25.97
2022-12-09T11:37:02.606Z,27.03
2022-12-09T11:40:16.666Z,26.33
2022-12-09T11:43:21.769Z,31.87
2022-12-09T11:46:30.177Z,29.83
2022-12-09T11:49:44.598Z,25.43
2022-12-09T11:53:05.935Z,27.17
2022-12-09T11:56:18.553Z,25.80
2022-12-09T11:59:36.365Z,25.43
2022-12-09T12:02:49.663Z,25.43
2022-12-09T12:05:56.084Z,27.33
2022-12-09T12:09:08.078Z,30.73
2022-12-09T12:12:24.239Z,30.13
2022-12-09T12:15:40.623Z,29.17
2022-12-09T12:18:53.115Z,28.37
2022-12-09T12:22:34.691Z,28.53
2022-12-09T12:25:53.301Z,29.40
2022-12-09T12:29:29.143Z,28.67
2022-12-09T12:33:53.114Z,27.47
2022-12-09T12:36:40.986Z,27.33
2022-12-09T12:39:57.661Z,26.97
2022-12-09T12:43:37.704Z,29.10
2022-12-09T12:47:04.594Z,25.30
2022-12-09T12:50:48.403Z,26.03
2022-12-09T12:54:00.440Z,26.77
2022-12-09T12:57:17.361Z,26.03
2022-12-09T13:00:25.447Z,26.50
2022-12-09T13:03:39.921Z,25.77
2022-12-09T13:06:51.736Z,23.57
2022-12-09T13:10:03.769Z,26.27
2022-12-09T13:13:18.804Z,25.93
2022-12-09T13:16:30.564Z,31.63
2022-12-09T13:19:43.024Z,26.47
2022-12-09T13:22:58.929Z,24.27
2022-12-09T13:26:25.273Z,23.87
2022-12-09T13:29:43.824Z,24.13
2022-12-09T13:33:22.785Z,24.23
2022-12-09T13:36:38.556Z,25.90
2022-12-09T13:39:59.753Z,25.77
2022-12-09T13:43:22.726Z,26.43
2022-12-09T13:46:29.264Z,26.47
2022-12-09T13:49:41.014Z,24.10
2022-12-09T13:52:51.466Z,25.50
2022-12-09T13:56:00.194Z,24.40
2022-12-09T13:59:32.802Z,26.10
2022-12-09T14:02:43.915Z,25.03
2022-12-09T14:05:59.578Z,25.30
2022-12-09T14:09:19.870Z,26.63
2022-12-09T14:13:18.849Z,24.93
2022-12-09T14:16:36.059Z,25.20
2022-12-09T14:19:56.458Z,25.10
2022-12-09T14:23:20.387Z,24.77
2022-12-09T14:26:36.006Z,25.93
2022-12-09T14:29:57.812Z,26.80
2022-12-09T14:33:02.880Z,25.63
2022-12-09T14:36:28.053Z,25.23
2022-12-09T14:39:44.916Z,25.80
2022-12-09T14:42:56.731Z,26.03
2022-12-09T14:46:05.059Z,26.17
2022-12-09T14:49:18.983Z,25.10
2022-12-09T14:52:30.259Z,26.50
2022-12-09T14:55:41.419Z,24.63
2022-12-09T14:58:50.108Z,26.00
2022-12-09T15:01:57.950Z,26.57
2022-12-09T15:05:03.785Z,26.10
2022-12-09T15:08:07.749Z,23.80
2022-12-09T15:11:18.032Z,25.03
2022-12-09T15:14:28.302Z,26.10
2022-12-09T15:17:39.126Z,25.50
2022-12-09T15:20:49.367Z,28.27
2022-12-09T15:23:53.394Z,25.27
2022-12-09T15:26:59.977Z,23.17
2022-12-09T15:30:23.261Z,22.33
2022-12-09T15:33:32.029Z,22.23
2022-12-09T15:36:41.125Z,24.00
2022-12-09T15:39:52.243Z,21.83
2022-12-09T15:43:00.907Z,25.23
2022-12-09T15:46:05.890Z,23.63
2022-12-09T15:49:15.184Z,22.17
2022-12-09T15:52:24.044Z,22.03
2022-12-09T15:55:36.766Z,24.40
2022-12-09T15:58:46.325Z,22.37
2022-12-09T16:01:54.135Z,22.50
2022-12-09T16:05:04.236Z,22.13
2022-12-09T16:08:07.979Z,22.47
2022-12-09T16:11:13.399Z,22.90
2022-12-09T16:14:19.611Z,22.60
2022-12-09T16:17:27.093Z,23.63
2022-12-09T16:20:39.178Z,22.87
2022-12-09T16:23:49.437Z,23.73
2022-12-09T16:26:56.493Z,23.47
2022-12-09T16:30:12.000Z,21.50
2022-12-09T16:33:20.212Z,22.43
2022-12-09T16:36:30.559Z,21.33
2022-12-09T16:39:38.161Z,22.80
2022-12-09T16:42:42.032Z,23.17
2022-12-09T16:45:51.057Z,22.73
2022-12-09T16:48:56.452Z,24.67
2022-12-09T16:52:03.522Z,21.43
2022-12-09T16:55:19.919Z,22.93
2022-12-09T16:58:24.673Z,24.37
2022-12-09T17:01:33.782Z,23.73
2022-12-09T17:04:38.904Z,23.30
2022-12-09T17:07:44.420Z,23.50
2022-12-09T17:10:49.095Z,24.40
2022-12-09T17:13:53.666Z,23.57
2022-12-09T17:16:57.513Z,23.23
2022-12-09T17:20:01.454Z,23.10
2022-12-09T17:23:06.979Z,23.10
2022-12-09T17:26:14.858Z,24.90
2022-12-09T17:29:18.818Z,24.37
2022-12-09T17:32:24.283Z,23.57
2022-12-09T17:35:27.985Z,26.67
2022-12-09T17:38:33.207Z,25.70
2022-12-09T17:41:37.072Z,23.90
2022-12-09T17:44:42.140Z,33.63
2022-12-09T17:47:46.386Z,27.50
2022-12-09T17:50:50.897Z,26.27
2022-12-09T17:53:56.695Z,28.20
2022-12-09T17:57:01.384Z,23.33
2022-12-09T18:00:07.832Z,24.97
2022-12-09T18:03:17.963Z,26.07
2022-12-09T18:06:26.151Z,23.17
2022-12-09T18:09:31.250Z,22.53
2022-12-09T18:12:34.950Z,22.80
2022-12-09T18:15:40.572Z,22.97
2022-12-09T18:18:44.835Z,23.97
2022-12-09T18:21:49.690Z,22.97
2022-12-09T18:24:54.773Z,21.90
2022-12-09T18:27:58.496Z,25.87
2022-12-09T18:31:06.726Z,25.07
2022-12-09T18:34:10.468Z,23.00
2022-12-09T18:37:14.149Z,23.50
2022-12-09T18:40:23.834Z,23.80
2022-12-09T18:43:28.316Z,40.00
2022-12-09T18:46:35.484Z,51.87
2022-12-09T18:49:39.482Z,24.37
2022-12-09T18:52:45.372Z,28.67
2022-12-09T18:55:50.579Z,25.30
2022-12-09T18:59:10.056Z,25.10
2022-12-09T19:02:15.134Z,41.90
2022-12-09T19:05:19.574Z,28.40
2022-12-09T19:08:23.452Z,22.57
2022-12-09T19:11:32.760Z,23.90
2022-12-09T19:14:40.759Z,25.37
2022-12-09T19:17:46.169Z,21.77
2022-12-09T19:20:50.076Z,22.70
2022-12-09T19:24:11.179Z,22.03
2022-12-09T19:27:19.100Z,21.43
2022-12-09T19:30:23.003Z,21.63
2022-12-09T19:33:27.098Z,20.57
2022-12-09T19:36:34.364Z,20.37
2022-12-09T19:39:42.138Z,19.17
2022-12-09T19:42:47.480Z,20.73
2022-12-09T19:45:51.343Z,20.27
2022-12-09T19:48:56.546Z,19.67
2022-12-09T19:52:00.375Z,21.30
2022-12-09T19:55:04.126Z,22.43
2022-12-09T19:58:09.454Z,21.23
2022-12-09T20:01:16.788Z,22.17
2022-12-09T20:04:48.272Z,28.07
2022-12-09T20:07:49.306Z,28.40
2022-12-09T20:10:53.348Z,20.70
2022-12-09T20:13:59.864Z,21.80
2022-12-09T20:17:03.515Z,21.27
2022-12-09T20:20:10.710Z,21.57
2022-12-09T20:23:15.876Z,27.03
2022-12-09T20:26:24.262Z,46.30
2022-12-09T20:29:34.070Z,28.33
2022-12-09T20:32:40.908Z,28.37
2022-12-09T20:35:44.602Z,28.30
2022-12-09T20:38:50.767Z,22.67
2022-12-09T20:41:54.650Z,27.43
2022-12-09T20:44:59.721Z,23.37
2022-12-09T20:48:03.335Z,24.17
2022-12-09T20:51:09.103Z,23.77
2022-12-09T20:54:18.777Z,21.50
2022-12-09T20:57:22.597Z,21.33
2022-12-09T21:00:27.670Z,22.60
2022-12-09T21:03:31.573Z,22.93
2022-12-09T21:06:38.332Z,22.10
2022-12-09T21:09:42.063Z,22.10
2022-12-09T21:12:46.070Z,22.03
2022-12-09T21:15:51.115Z,21.40
2022-12-09T21:18:57.907Z,22.57
2022-12-09T21:22:01.649Z,20.90
2022-12-09T21:25:05.786Z,19.43
2022-12-09T21:28:09.382Z,19.80
2022-12-09T21:31:17.205Z,21.90
2022-12-09T21:34:21.826Z,20.80
2022-12-09T21:37:25.860Z,21.63
2022-12-09T21:40:29.821Z,20.67
2022-12-09T21:43:34.295Z,20.70
2022-12-09T21:46:39.954Z,19.60
2022-12-09T21:49:43.533Z,20.43
2022-12-09T21:52:47.163Z,20.57
2022-12-09T21:55:51.560Z,20.57
2022-12-09T21:58:57.573Z,20.10
2022-12-09T22:02:02.556Z,22.27
2022-12-09T22:05:07.645Z,19.43
2022-12-09T22:08:11.229Z,19.17
2022-12-09T22:11:18.456Z,19.80
2022-12-09T22:14:22.140Z,19.23
2022-12-09T22:17:27.146Z,19.37
2022-12-09T22:23:55.413Z,19.53
2022-12-09T22:26:59.274Z,19.23
2022-12-09T22:30:03.285Z,19.37
2022-12-09T22:33:08.263Z,19.67
2022-12-09T22:36:14.032Z,20.30
2022-12-09T22:39:22.220Z,19.67
2022-12-09T22:42:25.889Z,19.43
2022-12-09T22:45:29.481Z,19.63
2022-12-09T22:48:35.907Z,20.90
2022-12-09T22:51:39.867Z,20.80
2022-12-09T22:54:43.644Z,21.33
2022-12-09T22:57:47.414Z,22.10
2022-12-09T23:00:51.180Z,20.33
2022-12-09T23:03:57.954Z,20.83
2022-12-09T23:07:01.714Z,21.87
2022-12-09T23:10:06.882Z,23.27
2022-12-09T23:13:11.146Z,21.87
2022-12-09T23:16:18.498Z,22.70
2022-12-09T23:19:23.682Z,21.73
2022-12-09T23:22:27.231Z,21.50
2022-12-09T23:25:31.045Z,21.80
2022-12-09T23:28:38.222Z,22.80
2022-12-09T23:31:43.163Z,22.77
2022-12-09T23:34:48.194Z,21.53
2022-12-09T23:37:51.928Z,22.70
2022-12-09T23:40:55.582Z,21.73
2022-12-09T23:43:59.735Z,21.83
2022-12-09T23:47:03.324Z,22.30
2022-12-09T23:50:09.506Z,21.57
2022-12-09T23:53:13.314Z,23.77
2022-12-09T23:56:20.387Z,23.23
2022-12-09T23:59:24.791Z,23.73
